^^
Station Historical Data
Daily Summary for April 30, 2017 Units:  English    Metric   Both
« Previous Day
Next Day »
Daily Weekly Monthly Yearly Custom
  High: Low: Average:
Temperature: 64.4 °F 49.6 °F 56.9 °F
Dew Point: 54.4 °F 38.6 °F 43.5 °F
Humidity: 72% 50% 61%
Wind Speed: 6.0mph 0.0mph 1mph
Wind Gust: 12.0mph - -
Wind- - SSW
Pressure: 30.25 in 30.11 in -
Precipitation: 0.00 in    
Historical Graphs
 
 
Tabular Data for April 30, 2017
Time Temperature Dew Point Pressure Wind Wind Speed Wind Gust Humidity Rainfall Rate (Hourly) Conditions
00:00 64.4 °F 54.4 °F 30.11 in NE 3.0 mph 7.0 mph 70% 0.00 in RA
00:15 64.2 °F 53.8 °F 30.12 in North 2.0 mph 6.0 mph 69% 0.00 in CLR
00:30 63.9 °F 53.1 °F 30.12 in NNE 2.0 mph 10.0 mph 68% 0.00 in CLR
00:45 63.4 °F 53.0 °F 30.12 in NNE 1.0 mph 6.0 mph 69% 0.00 in CLR
01:00 63.0 °F 51.9 °F 30.12 in Calm   6.0 mph 67% 0.00 in CLR
02:15 61.7 °F 49.0 °F 30.14 in Calm   4.0 mph 63% 0.00 in CLR
02:30 61.3 °F 49.4 °F 30.14 in Calm   3.0 mph 65% 0.00 in CLR
02:45 60.4 °F 49.4 °F 30.14 in Calm   1.0 mph 67% 0.00 in CLR
03:00 59.8 °F 48.8 °F 30.14 in NNW 1.0 mph 6.0 mph 67% 0.00 in CLR
03:15 60.2 °F 48.4 °F 30.15 in Calm   6.0 mph 65% 0.00 in CLR
03:30 59.8 °F 48.4 °F 30.14 in North 1.0 mph 2.0 mph 66% 0.00 in CLR
03:45 59.4 °F 48.0 °F 30.15 in Calm   3.0 mph 66% 0.00 in CLR
04:00 58.5 °F 47.2 °F 30.15 in ENE 2.0 mph 4.0 mph 66% 0.00 in CLR
04:15 58.2 °F 46.1 °F 30.17 in Calm   5.0 mph 64% 0.00 in CLR
04:30 57.6 °F 45.5 °F 30.17 in Calm   4.0 mph 64% 0.00 in CLR
04:45 56.9 °F 45.6 °F 30.17 in NE 1.0 mph 2.0 mph 66% 0.00 in CLR
05:00 56.2 °F 45.4 °F 30.18 in Calm   3.0 mph 67% 0.00 in CLR
05:15 55.4 °F 44.6 °F 30.18 in Calm   3.0 mph 67% 0.00 in FEW
05:30 55.0 °F 43.1 °F 30.19 in NNW 1.0 mph 4.0 mph 64% 0.00 in FEW
05:45 54.6 °F 43.5 °F 30.20 in Calm   3.0 mph 66% 0.00 in FEW
06:00 54.0 °F 40.4 °F 30.21 in North 1.0 mph 5.0 mph 60% 0.00 in FEW
06:15 53.3 °F 38.9 °F 30.21 in NNW 2.0 mph 8.0 mph 58% 0.00 in BKN
06:30 53.0 °F 38.6 °F 30.22 in NW 1.0 mph 6.0 mph 58% 0.00 in BKN
06:45 53.2 °F 38.8 °F 30.22 in NNW 1.0 mph 5.0 mph 58% 0.00 in BKN
07:00 53.2 °F 38.8 °F 30.23 in North 1.0 mph 10.0 mph 58% 0.00 in BKN
07:15 53.4 °F 39.0 °F 30.24 in Calm   6.0 mph 58% 0.00 in BKN
07:30 53.4 °F 39.0 °F 30.23 in North 3.0 mph 8.0 mph 58% 0.00 in BKN
07:45 53.9 °F 39.0 °F 30.24 in NNW 2.0 mph 5.0 mph 57% 0.00 in BKN
08:00 54.6 °F 39.7 °F 30.25 in North 2.0 mph 4.0 mph 57% 0.00 in BKN
08:15 55.2 °F 40.2 °F 30.25 in Calm   2.0 mph 57% 0.00 in BKN
08:30 55.6 °F 40.1 °F 30.24 in Calm   5.0 mph 56% 0.00 in BKN
08:45 56.1 °F 40.1 °F 30.25 in Calm   5.0 mph 55% 0.00 in BKN
09:00 56.7 °F 40.7 °F 30.25 in Calm   3.0 mph 55% 0.00 in BKN
09:15 58.0 °F 42.4 °F 30.24 in Calm   2.0 mph 56% 0.00 in BKN
09:30 59.0 °F 41.9 °F 30.23 in NNW 1.0 mph 6.0 mph 53% 0.00 in BKN
09:45 61.0 °F 42.3 °F 30.24 in SE 1.0 mph 5.0 mph 50% 0.00 in BKN
10:00 60.8 °F 42.0 °F 30.25 in ENE 1.0 mph 6.0 mph 50% 0.00 in BKN
10:15 60.8 °F 42.6 °F 30.25 in NNE 1.0 mph 3.0 mph 51% 0.00 in FEW
10:30 60.2 °F 42.5 °F 30.24 in South 2.0 mph 6.0 mph 52% 0.00 in FEW
10:45 59.7 °F 42.0 °F 30.23 in WSW 2.0 mph 6.0 mph 52% 0.00 in FEW
11:00 59.7 °F 42.0 °F 30.23 in East 2.0 mph 9.0 mph 52% 0.00 in FEW
11:15 59.5 °F 42.3 °F 30.24 in North 1.0 mph 12.0 mph 53% 0.00 in BKN
11:30 58.8 °F 42.2 °F 30.24 in West 1.0 mph 8.0 mph 54% 0.00 in BKN
11:45 58.9 °F 42.3 °F 30.25 in Calm   6.0 mph 54% 0.00 in BKN
12:00 59.4 °F 42.7 °F 30.24 in WNW 1.0 mph 5.0 mph 54% 0.00 in BKN
12:15 59.6 °F 42.9 °F 30.24 in Calm   5.0 mph 54% 0.00 in BKN
12:30 59.9 °F 42.7 °F 30.25 in Calm   5.0 mph 53% 0.00 in BKN
12:45 60.0 °F 43.3 °F 30.25 in Calm   2.0 mph 54% 0.00 in BKN
13:00 60.4 °F 43.2 °F 30.25 in SW 1.0 mph 5.0 mph 53% 0.00 in BKN
13:15 61.2 °F 43.4 °F 30.25 in NW 2.0 mph 7.0 mph 52% 0.00 in BKN
13:30 61.6 °F 43.8 °F 30.24 in SW 2.0 mph 6.0 mph 52% 0.00 in BKN
13:45 61.7 °F 44.4 °F 30.23 in ESE 2.0 mph 7.0 mph 53% 0.00 in BKN
14:00 61.5 °F 44.7 °F 30.23 in SSW 6.0 mph 10.0 mph 54% 0.00 in BKN
14:15 61.0 °F 44.7 °F 30.23 in SSW 5.0 mph 10.0 mph 55% 0.00 in BKN
14:30 60.6 °F 44.8 °F 30.22 in SW 3.0 mph 8.0 mph 56% 0.00 in BKN
14:45 59.2 °F 44.0 °F 30.24 in WSW 2.0 mph 7.0 mph 57% 0.00 in BKN
15:00 59.5 °F 44.7 °F 30.23 in WNW 1.0 mph 7.0 mph 58% 0.00 in BKN
15:15 59.7 °F 44.4 °F 30.23 in SSW 1.0 mph 9.0 mph 57% 0.00 in BKN
15:30 59.5 °F 43.8 °F 30.23 in SSW 2.0 mph 7.0 mph 56% 0.00 in BKN
15:45 59.6 °F 44.3 °F 30.22 in Calm   7.0 mph 57% 0.00 in BKN
16:00 59.4 °F 44.2 °F 30.21 in NNW 1.0 mph 6.0 mph 57% 0.00 in BKN
16:15 59.2 °F 44.0 °F 30.22 in SSW 2.0 mph 6.0 mph 57% 0.00 in BKN
16:30 59.1 °F 44.7 °F 30.22 in SSW 1.0 mph 5.0 mph 59% 0.00 in BKN
16:45 58.3 °F 44.0 °F 30.21 in ENE 1.0 mph 6.0 mph 59% 0.00 in BKN
17:00 57.5 °F 43.7 °F 30.22 in SE 3.0 mph 9.0 mph 60% 0.00 in BKN
17:15 57.1 °F 44.2 °F 30.22 in Calm   6.0 mph 62% 0.00 in BKN
17:30 56.8 °F 44.3 °F 30.23 in Calm   8.0 mph 63% 0.00 in BKN
17:45 56.1 °F 44.5 °F 30.24 in SSE 1.0 mph 6.0 mph 65% 0.00 in BKN
18:00 55.8 °F 43.8 °F 30.23 in ESE 1.0 mph 5.0 mph 64% 0.00 in BKN
18:15 55.3 °F 43.3 °F 30.22 in NNW 1.0 mph 6.0 mph 64% 0.00 in BKN
18:30 55.0 °F 43.4 °F 30.21 in NE 2.0 mph 6.0 mph 65% 0.00 in BKN
18:45 54.6 °F 42.7 °F 30.22 in ENE 1.0 mph 6.0 mph 64% 0.00 in BKN
19:00 54.0 °F 42.1 °F 30.21 in Calm   6.0 mph 64% 0.00 in BKN
19:15 53.4 °F 42.3 °F 30.22 in SE 1.0 mph 10.0 mph 66% 0.00 in BKN
19:30 53.0 °F 42.7 °F 30.21 in Calm   4.0 mph 68% 0.00 in BKN
19:45 52.5 °F 42.6 °F 30.21 in NW 1.0 mph 6.0 mph 69% 0.00 in BKN
20:00 52.2 °F 42.7 °F 30.20 in Calm   10.0 mph 70% 0.00 in BKN
20:15 52.0 °F 42.5 °F 30.20 in North 1.0 mph 7.0 mph 70% 0.00 in BKN
20:30 51.9 °F 42.4 °F 30.19 in SW 1.0 mph 4.0 mph 70% 0.00 in BKN
20:45 51.5 °F 42.0 °F 30.19 in WNW 1.0 mph 5.0 mph 70% 0.00 in BKN
21:00 51.3 °F 41.8 °F 30.20 in Calm   5.0 mph 70% 0.00 in BKN
21:15 51.1 °F 41.7 °F 30.20 in Calm   5.0 mph 70% 0.00 in BKN
21:30 51.0 °F 41.2 °F 30.21 in ESE 1.0 mph 4.0 mph 69% 0.00 in BKN
21:45 50.8 °F 41.0 °F 30.20 in Calm   5.0 mph 69% 0.00 in BKN
22:00 50.8 °F 41.0 °F 30.20 in WNW 1.0 mph 3.0 mph 69% 0.00 in BKN
22:15 50.5 °F 40.0 °F 30.19 in Calm   6.0 mph 67% 0.00 in BKN
22:30 50.3 °F 39.8 °F 30.18 in Calm   6.0 mph 67% 0.00 in BKN
22:45 50.2 °F 40.0 °F 30.17 in WNW 1.0 mph 5.0 mph 68% 0.00 in BKN
23:00 50.1 °F 40.3 °F 30.17 in Calm   3.0 mph 69% 0.00 in BKN
23:15 49.9 °F 40.1 °F 30.17 in NNW 1.0 mph 4.0 mph 69% 0.00 in BKN
23:30 49.7 °F 40.3 °F 30.17 in West 1.0 mph 4.0 mph 70% 0.00 in BKN
23:45 49.6 °F 40.9 °F 30.17 in Calm   4.0 mph 72% 0.00 in BKN
TarryTown NY Weather
Compliments of Weather Underground - 1.5 mb